Time;durP1;ratioP1;P1;durP2;ratioP2;P2;SDS_P1;SDS_P2;PMS_P1;PMS_P2;Temp;Humidity;BMP_temperature;BMP_pressure;BME280_temperature;BME280_humidity;BME280_pressure;Samples;Min_cycle;Max_cycle;Signal;HPM_P1;HPM_P2
2021/12/02 00:00:34;;;;;;;;;9.33;8.00;;;;;7.45;81.92;99834.84;5121055;27;45482;-78
2021/12/02 00:02:59;;;;;;;;;6.00;5.33;;;;;7.51;82.33;99846.53;5119905;27;47048;-78
2021/12/02 00:05:24;;;;;;;;;6.67;6.00;;;;;7.49;82.25;99843.25;5120127;27;45810;-78
2021/12/02 00:07:51;;;;;;;;;6.67;5.00;;;;;7.47;81.97;99832.00;5121748;27;45316;-77
2021/12/02 00:10:17;;;;;;;;;5.33;5.00;;;;;7.47;81.58;99836.47;5120137;27;46781;-78
2021/12/02 00:12:42;;;;;;;;;8.00;6.67;;;;;7.49;82.14;99845.91;5119717;27;48077;-78
2021/12/02 00:15:12;;;;;;;;;4.67;4.00;;;;;7.47;81.93;99844.41;5119763;27;45312;-78
2021/12/02 00:17:40;;;;;;;;;4.33;3.67;;;;;7.43;81.99;99842.09;5121393;27;45271;-78
2021/12/02 00:23:29;;;;;;;;;4.00;4.00;;;;;7.47;82.13;99847.03;5120983;27;45890;-78
2021/12/02 00:25:59;;;;;;;;;5.33;5.33;;;;;7.47;82.26;99847.03;5121316;27;45419;-77
2021/12/02 00:28:27;;;;;;;;;0.00;0.00;;;;;7.35;82.44;99836.88;5119887;27;45241;-77
2021/12/02 00:30:59;;;;;;;;;6.67;5.33;;;;;7.35;82.18;99850.09;5120870;27;45365;-77
2021/12/02 00:33:28;;;;;;;;;6.00;6.00;;;;;7.41;82.76;99857.34;5119374;27;47498;-77
2021/12/02 00:35:54;;;;;;;;;7.67;7.67;;;;;7.46;81.98;99862.09;5119578;27;45366;-77
2021/12/02 00:38:21;;;;;;;;;10.67;9.00;;;;;7.41;82.05;99865.28;5119774;27;45385;-78
2021/12/02 00:40:47;;;;;;;;;8.67;7.67;;;;;7.40;82.32;99870.72;5115492;27;46363;-78
2021/12/02 00:43:14;;;;;;;;;8.67;7.67;;;;;7.43;82.50;99873.03;5098447;27;47147;-78
2021/12/02 00:45:41;;;;;;;;;10.33;9.00;;;;;7.33;82.21;99874.06;5100226;27;45246;-78
2021/12/02 00:48:10;;;;;;;;;13.33;11.33;;;;;7.35;82.54;99884.47;5098894;27;45307;-78
2021/12/02 00:50:43;;;;;;;;;10.33;9.00;;;;;7.33;83.05;99881.16;5098746;27;45396;-78
2021/12/02 00:53:10;;;;;;;;;6.33;6.00;;;;;7.23;82.49;99868.19;5098720;27;47399;-77
2021/12/02 00:55:38;;;;;;;;;13.33;11.33;;;;;7.26;82.92;99874.94;5098921;27;45306;-78
2021/12/02 00:58:04;;;;;;;;;15.00;13.00;;;;;7.32;82.54;99879.53;5098757;27;45257;-78
2021/12/02 01:00:30;;;;;;;;;9.33;9.00;;;;;7.17;83.03;99872.34;5098298;27;45962;-77
2021/12/02 01:03:02;;;;;;;;;9.33;9.33;;;;;7.23;82.68;99883.22;5099882;27;45393;-78
2021/12/02 01:05:28;;;;;;;;;10.33;9.00;;;;;7.20;82.66;99876.44;5101310;27;45249;-78
2021/12/02 01:07:54;;;;;;;;;13.67;12.67;;;;;7.18;83.04;99887.19;5103822;27;45333;-78
2021/12/02 01:10:20;;;;;;;;;8.33;8.00;;;;;7.18;83.20;99883.72;5102337;27;47393;-78
2021/12/02 01:12:47;;;;;;;;;9.67;9.67;;;;;7.13;82.90;99880.78;5103668;27;45368;-78
2021/12/02 01:15:13;;;;;;;;;10.00;9.00;;;;;7.24;82.99;99896.25;5101847;27;45441;-78
2021/12/02 01:17:40;;;;;;;;;7.33;7.00;;;;;7.16;82.69;99886.53;5103631;27;45361;-78
2021/12/02 01:20:07;;;;;;;;;9.33;9.33;;;;;7.17;82.85;99897.94;5103560;27;45340;-78
2021/12/02 01:22:36;;;;;;;;;9.00;6.00;;;;;7.16;82.80;99899.75;5103283;27;45317;-78
2021/12/02 01:25:04;;;;;;;;;7.00;7.00;;;;;7.17;82.80;99901.41;5102026;27;45376;-78
2021/12/02 01:27:32;;;;;;;;;11.00;8.00;;;;;7.13;82.87;99894.84;5102180;27;45264;-77
2021/12/02 01:29:58;;;;;;;;;8.67;8.67;;;;;7.09;83.20;99898.00;5101838;27;46434;-77
2021/12/02 01:32:25;;;;;;;;;7.00;7.00;;;;;7.02;83.04;99903.97;5103134;27;45301;-78
2021/12/02 01:34:52;;;;;;;;;9.67;8.00;;;;;7.00;83.65;99899.84;5103173;27;45560;-78
2021/12/02 01:37:18;;;;;;;;;8.00;8.00;;;;;6.99;83.47;99898.19;5103439;27;45336;-78
2021/12/02 01:39:44;;;;;;;;;6.00;6.00;;;;;7.00;83.69;99911.22;5101911;27;47089;-78
2021/12/02 01:42:23;;;;;;;;;11.00;10.00;;;;;6.99;83.71;99906.94;5116975;27;47026;-78
2021/12/02 01:44:50;;;;;;;;;7.33;7.33;;;;;6.91;83.76;99902.50;5122388;27;45260;-79
2021/12/02 01:47:20;;;;;;;;;13.33;10.33;;;;;6.89;84.18;99912.41;5122204;27;45336;-79
2021/12/02 01:49:53;;;;;;;;;7.33;7.00;;;;;6.97;84.04;99911.56;5123564;27;45325;-79
2021/12/02 01:52:25;;;;;;;;;8.00;7.33;;;;;7.03;83.62;99923.25;5123563;27;45452;-79
2021/12/02 01:54:53;;;;;;;;;7.00;6.00;;;;;6.89;83.91;99909.75;5121994;27;45381;-78
2021/12/02 01:57:34;;;;;;;;;6.00;6.00;;;;;7.01;83.95;99927.91;5122415;27;45319;-78
2021/12/02 02:00:20;;;;;;;;;9.67;7.67;;;;;7.04;83.58;99938.94;5123117;27;45554;-78
2021/12/02 02:02:47;;;;;;;;;6.00;6.00;;;;;6.94;83.51;99922.47;5156631;27;47037;-78
2021/12/02 02:05:15;;;;;;;;;6.00;5.33;;;;;7.02;84.33;99932.19;5123445;27;45382;-78
2021/12/02 02:07:43;;;;;;;;;4.00;4.00;;;;;7.08;84.00;99947.38;5122084;27;45196;-78
2021/12/02 02:10:11;;;;;;;;;6.00;6.00;;;;;7.07;84.21;99948.38;5122005;27;46204;-78
2021/12/02 02:12:37;;;;;;;;;6.00;6.00;;;;;7.00;83.98;99937.63;5123348;27;45456;-77
2021/12/02 02:15:03;;;;;;;;;5.67;5.00;;;;;7.06;83.97;99941.41;5123002;27;45420;-78
2021/12/02 02:17:34;;;;;;;;;5.67;4.33;;;;;6.97;83.79;99926.59;5122334;27;45317;-78
2021/12/02 02:20:00;;;;;;;;;6.67;4.00;;;;;7.10;83.93;99950.66;5123221;27;45259;-78
2021/12/02 02:22:26;;;;;;;;;3.00;3.00;;;;;7.09;83.50;99956.94;5123028;27;45906;-79
2021/12/02 02:24:53;;;;;;;;;5.00;4.67;;;;;7.05;84.20;99947.69;5122998;27;45323;-79
2021/12/02 02:27:20;;;;;;;;;5.00;5.00;;;;;7.09;83.79;99967.50;5123329;27;45411;-79
2021/12/02 02:29:45;;;;;;;;;7.33;7.00;;;;;7.02;84.07;99972.66;5121691;27;45313;-78
2021/12/02 02:32:11;;;;;;;;;6.67;5.67;;;;;7.00;83.77;99973.81;5121233;27;46875;-78
2021/12/02 02:34:36;;;;;;;;;2.00;1.67;;;;;6.98;84.02;99967.88;5121618;27;45223;-77
2021/12/02 02:37:03;;;;;;;;;7.33;7.00;;;;;7.04;83.69;99985.69;5123087;27;45165;-78
2021/12/02 02:39:30;;;;;;;;;2.00;2.00;;;;;7.01;83.78;99978.94;5122867;27;45281;-77
2021/12/02 02:42:01;;;;;;;;;6.33;6.00;;;;;7.01;83.96;99980.75;5108526;27;45443;-78
2021/12/02 02:44:30;;;;;;;;;5.00;5.00;;;;;6.95;83.80;99979.63;5102387;27;45257;-78
2021/12/02 02:46:56;;;;;;;;;4.00;4.00;;;;;7.01;84.19;99980.75;5102125;27;45423;-79
2021/12/02 02:49:22;;;;;;;;;4.67;3.33;;;;;7.09;84.12;99990.47;5101831;27;45420;-79
2021/12/02 02:51:48;;;;;;;;;9.33;6.33;;;;;6.91;83.88;99960.63;5100746;27;48127;-79
2021/12/02 02:54:16;;;;;;;;;5.00;5.00;;;;;7.11;84.03;99985.81;5101770;27;45307;-79
2021/12/02 02:56:50;;;;;;;;;6.00;6.00;;;;;7.16;84.28;99999.38;5135272;27;45350;-78
2021/12/02 03:02:01;;;;;;;;;5.00;5.00;;;;;7.16;83.75;100000.19;5101425;27;45952;-77
2021/12/02 03:14:49;;;;;;;;;1.00;1.00;;;;;7.04;82.52;99999.72;5101501;27;45320;-77
2021/12/02 03:17:14;;;;;;;;;2.33;2.33;;;;;6.95;83.05;100001.56;5101670;27;45354;-78
2021/12/02 03:19:42;;;;;;;;;2.67;2.33;;;;;6.94;82.31;99999.09;5100199;27;45346;-78
2021/12/02 03:22:08;;;;;;;;;1.33;1.00;;;;;6.82;82.42;99993.31;5100230;27;47889;-78
2021/12/02 03:24:33;;;;;;;;;1.67;1.33;;;;;6.82;81.75;100003.88;5100114;27;45357;-78
2021/12/02 03:26:58;;;;;;;;;2.00;2.00;;;;;6.73;82.20;100000.44;5101726;27;45367;-77
2021/12/02 03:29:24;;;;;;;;;1.00;1.00;;;;;6.83;82.13;100016.13;5134593;27;47018;-77
2021/12/02 03:31:49;;;;;;;;;2.67;1.00;;;;;6.68;81.99;99998.28;5099783;27;48616;-77
2021/12/02 03:34:16;;;;;;;;;3.00;2.33;;;;;6.75;81.94;100018.75;5099853;27;45672;-76
2021/12/02 03:36:41;;;;;;;;;2.00;0.00;;;;;6.73;82.60;100018.94;5101660;27;45268;-76
2021/12/02 03:39:10;;;;;;;;;2.67;2.33;;;;;6.73;82.52;100026.84;5099896;27;46382;-76
2021/12/02 03:41:37;;;;;;;;;3.00;3.00;;;;;6.71;82.85;100030.66;5111496;27;46418;-77
2021/12/02 03:44:02;;;;;;;;;3.67;3.00;;;;;6.63;82.20;100026.19;5121846;27;45390;-76
2021/12/02 03:46:27;;;;;;;;;2.00;2.00;;;;;6.67;82.87;100016.94;5120413;27;45455;-78
2021/12/02 03:48:55;;;;;;;;;1.00;1.00;;;;;6.73;82.71;100031.31;5120369;27;46397;-78
2021/12/02 03:51:21;;;;;;;;;2.00;2.00;;;;;6.63;82.72;100010.34;5120255;27;47216;-78
2021/12/02 03:53:47;;;;;;;;;2.33;1.00;;;;;6.67;82.58;100009.03;5120169;27;45585;-78
2021/12/02 03:56:13;;;;;;;;;2.67;2.00;;;;;6.75;82.06;100029.31;5120354;27;45361;-77
2021/12/02 03:58:41;;;;;;;;;1.00;1.00;;;;;6.65;82.30;100025.03;5121594;27;45393;-76
2021/12/02 04:01:08;;;;;;;;;1.00;1.00;;;;;6.70;81.44;100037.75;5121212;27;47039;-77
2021/12/02 04:03:35;;;;;;;;;2.00;2.00;;;;;6.64;81.40;100036.59;5120126;27;45380;-77
2021/12/02 04:06:01;;;;;;;;;0.00;0.00;;;;;6.67;82.17;100043.34;5121886;27;45296;-76
2021/12/02 04:08:38;;;;;;;;;2.00;2.00;;;;;6.62;80.93;100043.88;5121515;27;45522;-76
2021/12/02 04:13:43;;;;;;;;;2.00;2.00;;;;;6.59;80.38;100057.41;5121189;27;45199;-76
2021/12/02 04:16:14;;;;;;;;;1.00;1.00;;;;;6.51;80.92;100055.59;5121375;27;45358;-77
2021/12/02 04:18:40;;;;;;;;;2.00;2.00;;;;;6.50;81.08;100066.31;5121211;27;45288;-78
2021/12/02 04:21:05;;;;;;;;;1.00;1.00;;;;;6.38;80.94;100047.31;5119788;27;48065;-78
2021/12/02 04:23:30;;;;;;;;;2.33;0.00;;;;;6.37;81.16;100043.84;5121265;27;45427;-78
2021/12/02 04:25:56;;;;;;;;;2.00;1.67;;;;;6.36;80.31;100052.75;5120083;27;45360;-78
2021/12/02 04:28:21;;;;;;;;;1.00;1.00;;;;;6.28;79.37;100044.81;5121166;27;45517;-78
2021/12/02 04:30:46;;;;;;;;;0.00;0.00;;;;;6.26;79.58;100047.63;5119585;27;48063;-76
2021/12/02 04:33:12;;;;;;;;;0.00;0.00;;;;;6.21;79.32;100046.47;5119761;27;45293;-76
2021/12/02 04:35:37;;;;;;;;;0.00;0.00;;;;;6.26;79.74;100058.19;5121370;27;45218;-76
2021/12/02 04:38:02;;;;;;;;;2.00;2.00;;;;;6.26;80.05;100062.66;5121231;27;45599;-77
2021/12/02 04:40:28;;;;;;;;;1.67;1.67;;;;;6.24;79.97;100077.81;5117962;27;48129;-76
2021/12/02 04:42:54;;;;;;;;;1.00;1.00;;;;;6.12;79.04;100066.75;5098746;27;45657;-77
2021/12/02 04:45:19;;;;;;;;;1.00;1.00;;;;;6.06;79.10;100078.75;5099044;27;45464;-76
2021/12/02 04:47:44;;;;;;;;;0.00;0.00;;;;;6.01;80.16;100081.00;5098624;27;45934;-78
2021/12/02 04:50:10;;;;;;;;;1.67;1.67;;;;;5.96;78.85;100076.25;5098818;27;48177;-78
2021/12/02 04:52:36;;;;;;;;;3.00;1.00;;;;;5.90;79.27;100079.53;5100399;27;45281;-77
2021/12/02 04:55:03;;;;;;;;;0.33;0.33;;;;;5.96;79.89;100099.16;5098820;27;45284;-78
2021/12/02 04:57:28;;;;;;;;;5.00;1.67;;;;;5.90;79.45;100108.53;5100082;27;46595;-78
2021/12/02 04:59:54;;;;;;;;;0.00;0.00;;;;;5.79;78.82;100093.81;5098173;27;47339;-77
2021/12/02 05:02:19;;;;;;;;;1.33;1.00;;;;;5.81;78.30;100113.75;5100164;27;45164;-76
2021/12/02 05:04:44;;;;;;;;;2.00;1.00;;;;;5.67;78.36;100102.00;5098943;27;45306;-76
2021/12/02 05:07:10;;;;;;;;;2.33;1.00;;;;;5.68;77.76;100118.63;5100061;27;45361;-76
2021/12/02 05:09:35;;;;;;;;;0.00;0.00;;;;;5.59;78.30;100109.88;5100086;27;45547;-76
2021/12/02 05:12:01;;;;;;;;;1.00;0.67;;;;;5.52;78.25;100122.03;5098923;27;45477;-78
2021/12/02 05:14:26;;;;;;;;;3.00;2.00;;;;;5.48;78.64;100118.84;5100277;27;45294;-78
2021/12/02 05:16:51;;;;;;;;;0.00;0.00;;;;;5.48;78.43;100133.88;5098582;27;47347;-78
2021/12/02 05:19:17;;;;;;;;;1.00;1.00;;;;;5.26;76.80;100112.31;5099849;27;46398;-79
2021/12/02 05:21:42;;;;;;;;;1.00;1.00;;;;;5.26;76.91;100128.13;5099860;27;45305;-80
2021/12/02 05:24:08;;;;;;;;;1.67;1.67;;;;;5.16;77.34;100130.84;5133020;27;45789;-79
2021/12/02 05:26:34;;;;;;;;;2.67;0.33;;;;;5.12;77.59;100127.69;5098599;27;46240;-79
2021/12/02 05:28:59;;;;;;;;;4.00;2.00;;;;;5.16;78.32;100141.41;5099737;27;46362;-79
2021/12/02 05:31:25;;;;;;;;;1.00;1.00;;;;;4.95;78.71;100113.59;5098188;27;45599;-78
2021/12/02 05:33:51;;;;;;;;;1.67;1.00;;;;;5.12;78.42;100150.59;5132929;27;45269;-79
2021/12/02 05:36:17;;;;;;;;;1.00;1.00;;;;;5.05;77.32;100142.44;5098451;27;46185;-79
2021/12/02 05:38:42;;;;;;;;;1.00;1.00;;;;;4.96;77.32;100149.47;5098205;27;47406;-79
2021/12/02 05:41:08;;;;;;;;;3.67;1.00;;;;;4.96;78.46;100152.09;5132757;27;45680;-80
2021/12/02 05:43:34;;;;;;;;;0.33;0.33;;;;;4.95;77.98;100157.53;5099448;27;45253;-80
2021/12/02 05:46:00;;;;;;;;;4.00;2.00;;;;;4.90;76.86;100158.81;5099431;27;45474;-79
2021/12/02 05:48:25;;;;;;;;;1.67;1.67;;;;;4.87;77.55;100161.75;5099293;27;45266;-80
2021/12/02 05:50:50;;;;;;;;;1.67;1.67;;;;;4.85;78.35;100152.34;5098147;27;45505;-79
2021/12/02 05:53:16;;;;;;;;;0.67;0.67;;;;;4.93;77.96;100150.59;5101966;27;45356;-80
2021/12/02 05:55:42;;;;;;;;;2.00;1.67;;;;;4.92;77.44;100156.88;5102901;27;45360;-77
2021/12/02 05:58:10;;;;;;;;;1.33;1.33;;;;;4.96;78.19;100153.91;5101525;27;47063;-78
2021/12/02 06:00:36;;;;;;;;;3.67;2.67;;;;;4.93;78.22;100155.88;5102501;27;45278;-76
2021/12/02 06:03:02;;;;;;;;;1.33;1.33;;;;;4.84;78.35;100148.88;5102979;27;45275;-77
2021/12/02 06:05:27;;;;;;;;;2.33;2.00;;;;;4.87;77.93;100156.47;5101408;27;46058;-77
2021/12/02 06:07:56;;;;;;;;;2.00;2.00;;;;;4.80;77.91;100148.38;5102755;27;45619;-77
2021/12/02 06:10:22;;;;;;;;;3.00;1.00;;;;;4.85;78.61;100154.97;5101396;27;45282;-75
2021/12/02 06:12:48;;;;;;;;;3.00;2.00;;;;;4.87;78.50;100161.75;5101617;27;45325;-78
2021/12/02 06:15:14;;;;;;;;;3.33;3.33;;;;;4.93;77.85;100169.03;5101329;27;46061;-77
2021/12/02 06:17:39;;;;;;;;;2.67;2.67;;;;;4.93;78.42;100173.47;5102665;27;46371;-78
2021/12/02 06:20:07;;;;;;;;;2.00;2.00;;;;;4.83;78.85;100156.91;5101441;27;45346;-78
2021/12/02 06:22:33;;;;;;;;;2.00;2.00;;;;;4.87;78.79;100171.44;5104335;27;45222;-76
2021/12/02 06:27:48;;;;;;;;;2.33;2.33;;;;;4.82;79.07;100187.69;5102351;27;45376;-78
2021/12/02 06:30:15;;;;;;;;;2.00;2.00;;;;;4.69;78.54;100180.16;5103417;27;45317;-82
2021/12/02 06:32:41;;;;;;;;;1.33;1.33;;;;;4.73;79.06;100184.16;5102451;27;45162;-81
2021/12/02 06:35:07;;;;;;;;;3.33;1.33;;;;;4.61;78.41;100165.09;5100717;27;46292;-80
2021/12/02 06:37:33;;;;;;;;;1.33;1.33;;;;;4.56;77.85;100167.38;5101365;27;47362;-81
2021/12/02 06:39:58;;;;;;;;;4.00;2.00;;;;;4.58;78.70;100175.94;5102737;27;45273;-79
2021/12/02 06:42:23;;;;;;;;;2.00;2.00;;;;;4.55;78.46;100177.06;5101628;27;45366;-79
2021/12/02 06:44:49;;;;;;;;;2.00;2.00;;;;;4.47;78.85;100170.88;5135634;27;46959;-81
2021/12/02 06:47:14;;;;;;;;;2.00;2.00;;;;;4.50;78.36;100189.03;5102150;27;45524;-82
2021/12/02 06:49:40;;;;;;;;;3.00;2.00;;;;;4.43;78.38;100188.75;5103707;27;45297;-81
2021/12/02 06:52:12;;;;;;;;;6.33;3.00;;;;;4.39;78.22;100196.13;5102379;27;45435;-81
2021/12/02 06:54:37;;;;;;;;;2.00;2.00;;;;;4.45;79.07;100213.16;5104733;27;45556;-82
2021/12/02 06:57:03;;;;;;;;;2.00;1.00;;;;;4.34;78.41;100202.81;5119866;27;47138;-80
2021/12/02 06:59:29;;;;;;;;;1.67;1.67;;;;;4.33;78.41;100222.19;5124113;27;45271;-80
2021/12/02 07:01:54;;;;;;;;;2.00;2.00;;;;;4.36;78.50;100230.63;5125271;27;45416;-80
2021/12/02 07:04:19;;;;;;;;;3.67;3.00;;;;;4.38;78.98;100236.59;5121760;27;46967;-81
2021/12/02 07:06:45;;;;;;;;;2.67;2.67;;;;;4.38;79.31;100241.88;5122680;27;48119;-81
2021/12/02 07:09:10;;;;;;;;;3.00;1.00;;;;;4.27;78.36;100226.25;5125320;27;45439;-82
2021/12/02 07:11:36;;;;;;;;;2.00;2.00;;;;;4.34;78.74;100245.72;5123023;27;45408;-81
2021/12/02 07:14:06;;;;;;;;;3.00;2.00;;;;;4.32;78.68;100244.22;5121347;27;46127;-82
2021/12/02 07:16:36;;;;;;;;;3.67;3.00;;;;;4.28;78.78;100244.53;5122741;27;46277;-81
2021/12/02 07:19:07;;;;;;;;;3.00;2.00;;;;;4.23;78.87;100236.25;5122330;27;45377;-83
2021/12/02 07:21:36;;;;;;;;;3.00;2.67;;;;;4.22;77.99;100239.84;5121274;27;45432;-82
2021/12/02 07:24:03;;;;;;;;;5.33;4.00;;;;;4.14;79.12;100239.75;5120824;27;45803;-82
2021/12/02 07:26:28;;;;;;;;;3.00;3.00;;;;;4.14;78.98;100256.38;5124073;27;47095;-83
2021/12/02 07:28:54;;;;;;;;;4.33;3.67;;;;;3.90;78.72;100230.53;5121293;27;45385;-82
2021/12/02 07:31:21;;;;;;;;;4.67;3.67;;;;;4.08;79.93;100264.81;5124744;27;45467;-82
2021/12/02 07:33:51;;;;;;;;;10.00;8.00;;;;;3.82;78.98;100227.78;5122260;27;45918;-81
2021/12/02 07:36:18;;;;;;;;;3.67;3.67;;;;;4.03;78.96;100253.88;5125466;27;47100;-81
2021/12/02 07:38:44;;;;;;;;;4.00;4.00;;;;;3.99;78.56;100271.78;5129027;27;45300;-81
2021/12/02 07:41:10;;;;;;;;;3.00;3.00;;;;;4.05;79.21;100270.38;5129235;27;45528;-80
2021/12/02 07:43:38;;;;;;;;;3.00;2.00;;;;;4.01;79.91;100261.09;5120140;27;46212;-82
2021/12/02 07:46:05;;;;;;;;;3.33;3.00;;;;;4.08;79.52;100277.13;5121828;27;46677;-82
2021/12/02 07:48:30;;;;;;;;;4.00;4.00;;;;;4.07;79.36;100271.03;5121769;27;45375;-82
2021/12/02 07:51:00;;;;;;;;;3.00;3.00;;;;;4.02;79.08;100275.91;5122144;27;45323;-82
2021/12/02 07:53:26;;;;;;;;;3.33;3.00;;;;;4.08;79.43;100277.13;5120422;27;45951;-83
2021/12/02 07:55:54;;;;;;;;;4.00;2.00;;;;;4.07;78.88;100284.19;5120434;27;48429;-81
2021/12/02 07:58:22;;;;;;;;;4.33;4.33;;;;;3.96;78.95;100274.69;5121953;27;45749;-79
2021/12/02 08:00:48;;;;;;;;;3.00;2.00;;;;;4.04;79.44;100290.56;5120385;27;45452;-81
2021/12/02 08:03:14;;;;;;;;;4.00;3.00;;;;;3.99;78.13;100279.66;5125696;27;45894;-81
2021/12/02 08:05:40;;;;;;;;;8.33;7.33;;;;;4.04;77.96;100284.47;5128920;27;45875;-80
2021/12/02 08:08:06;;;;;;;;;4.00;3.00;;;;;4.01;78.50;100290.84;5130336;27;45288;-80
2021/12/02 08:10:32;;;;;;;;;67.00;55.25;;;;;4.14;78.50;100301.06;5124817;27;45165;-82
2021/12/02 08:13:01;;;;;;;;;6.67;5.00;;;;;4.19;79.11;100298.00;5121474;27;47212;-82
2021/12/02 08:15:28;;;;;;;;;4.00;4.00;;;;;4.28;79.34;100293.69;5120410;27;48116;-80
2021/12/02 08:17:56;;;;;;;;;10.33;9.33;;;;;4.38;79.08;100298.91;5125921;27;45372;-80
2021/12/02 08:20:23;;;;;;;;;7.00;5.00;;;;;4.51;78.96;100309.94;5135996;27;45361;-82
2021/12/02 08:22:49;;;;;;;;;11.00;8.67;;;;;4.47;78.50;100299.84;5135685;27;47391;-80
2021/12/02 08:25:15;;;;;;;;;12.67;9.00;;;;;4.50;78.14;100295.13;5136457;27;47013;-80
2021/12/02 08:27:41;;;;;;;;;9.67;9.00;;;;;4.53;76.87;100294.84;5137895;27;45342;-81
2021/12/02 08:30:09;;;;;;;;;4.67;3.67;;;;;4.59;77.40;100309.22;5137426;27;45258;-80
2021/12/02 08:32:38;;;;;;;;;6.00;6.00;;;;;4.63;77.64;100309.75;5134890;27;46347;-82
2021/12/02 08:35:04;;;;;;;;;13.00;10.33;;;;;4.65;77.63;100318.34;5135878;27;46162;-81
2021/12/02 08:37:32;;;;;;;;;6.67;4.00;;;;;4.74;77.59;100321.91;5133723;27;45344;-80
2021/12/02 08:40:00;;;;;;;;;4.00;3.33;;;;;4.77;77.46;100332.97;5124654;27;45256;-80
2021/12/02 08:42:27;;;;;;;;;3.00;3.00;;;;;4.59;76.51;100297.84;5128819;27;45316;-80
2021/12/02 08:44:54;;;;;;;;;3.67;3.33;;;;;4.66;77.15;100320.81;5130020;27;47247;-80
2021/12/02 08:47:23;;;;;;;;;5.33;5.33;;;;;4.72;77.60;100324.66;5123641;27;45281;-80
2021/12/02 08:49:53;;;;;;;;;8.00;7.67;;;;;4.75;76.41;100342.81;5129519;27;45323;-80
2021/12/02 08:52:22;;;;;;;;;3.00;3.00;;;;;4.72;77.03;100329.94;5128484;27;45202;-80
2021/12/02 08:54:49;;;;;;;;;5.67;3.00;;;;;4.66;76.84;100328.72;5131482;27;45332;-80
2021/12/02 08:57:15;;;;;;;;;5.00;3.33;;;;;4.68;77.01;100329.38;5126313;27;46031;-81
2021/12/02 08:59:42;;;;;;;;;4.00;4.00;;;;;4.71;77.44;100327.44;5129349;27;45449;-81
2021/12/02 09:02:08;;;;;;;;;4.00;4.00;;;;;4.71;76.18;100335.34;5126753;27;47224;-80
2021/12/02 09:04:33;;;;;;;;;4.33;3.67;;;;;4.74;76.77;100332.44;5127012;27;45181;-80
2021/12/02 09:06:58;;;;;;;;;3.67;2.00;;;;;4.79;77.14;100338.91;5123835;27;45172;-80
2021/12/02 09:09:26;;;;;;;;;5.33;4.33;;;;;4.76;76.30;100335.75;5130976;27;45242;-81
2021/12/02 09:11:52;;;;;;;;;15.33;15.33;;;;;4.72;77.23;100329.09;5122976;27;46187;-81
2021/12/02 09:14:17;;;;;;;;;5.67;5.67;;;;;4.79;76.91;100330.19;5123092;27;47010;-83
2021/12/02 09:16:42;;;;;;;;;10.33;10.33;;;;;4.67;76.87;100322.47;5122423;27;45307;-82
2021/12/02 09:19:08;;;;;;;;;6.33;5.33;;;;;4.77;77.40;100342.66;5123275;27;45280;-85
2021/12/02 09:21:34;;;;;;;;;11.00;9.33;;;;;4.60;76.67;100339.81;5121058;27;46068;-83
2021/12/02 09:23:59;;;;;;;;;8.33;8.33;;;;;4.90;76.23;100381.81;5121376;27;47926;-84
2021/12/02 09:26:25;;;;;;;;;5.00;3.67;;;;;4.69;78.32;100338.13;5125360;27;45915;-82
2021/12/02 09:28:52;;;;;;;;;3.00;3.00;;;;;4.96;77.81;100354.06;5126740;27;45366;-85
2021/12/02 09:31:19;;;;;;;;;4.00;3.67;;;;;4.85;77.59;100313.78;5127997;27;45199;-81
2021/12/02 09:33:46;;;;;;;;;6.33;4.00;;;;;5.05;76.18;100347.91;5126029;27;46989;-82
2021/12/02 09:36:20;;;;;;;;;8.67;5.67;;;;;5.21;75.49;100370.97;5124015;27;45448;-84
2021/12/02 09:38:46;;;;;;;;;7.67;5.33;;;;;5.10;75.11;100353.59;5123812;27;45210;-84
2021/12/02 09:41:17;;;;;;;;;8.00;6.00;;;;;5.00;76.21;100332.56;5115373;27;45475;-84
2021/12/02 09:43:43;;;;;;;;;2.67;2.67;;;;;5.24;75.69;100356.69;5102019;27;46867;-81
2021/12/02 09:46:09;;;;;;;;;5.00;5.00;;;;;5.37;76.01;100370.34;5120241;27;45357;-82
2021/12/02 09:48:35;;;;;;;;;8.33;5.00;;;;;5.30;74.75;100374.56;5123213;27;45474;-82
2021/12/02 09:51:08;;;;;;;;;6.67;5.33;;;;;5.32;74.96;100377.06;5123360;27;46131;-83
2021/12/02 09:53:48;;;;;;;;;4.67;4.67;;;;;5.42;74.03;100402.34;5129380;27;45527;-80
2021/12/02 09:56:39;;;;;;;;;5.00;4.00;;;;;5.34;75.17;100365.38;5131516;27;45365;-78
2021/12/02 09:59:23;;;;;;;;;4.67;4.67;;;;;5.26;73.96;100352.09;5139500;27;45151;-77
2021/12/02 10:01:50;;;;;;;;;5.00;5.00;;;;;5.32;73.72;100364.69;5127606;27;45626;-80
2021/12/02 10:04:16;;;;;;;;;6.67;5.00;;;;;5.57;72.96;100412.41;5137944;27;46213;-79
2021/12/02 10:06:42;;;;;;;;;10.67;7.67;;;;;5.54;74.15;100412.69;5134353;27;45351;-78
2021/12/02 10:09:15;;;;;;;;;4.67;3.00;;;;;5.34;73.96;100375.06;5134866;27;45341;-78
2021/12/02 10:11:56;;;;;;;;;4.00;4.00;;;;;5.61;74.29;100410.28;5130689;27;45322;-76
2021/12/02 10:14:32;;;;;;;;;5.00;5.00;;;;;5.29;75.00;100343.91;5129089;27;46181;-78
2021/12/02 10:17:16;;;;;;;;;3.67;3.67;;;;;5.46;74.77;100367.78;5126095;27;46114;-79
2021/12/02 10:22:41;;;;;;;;;3.00;3.00;;;;;5.63;73.80;100380.13;5123373;27;45245;-79
2021/12/02 10:25:07;;;;;;;;;3.33;3.33;;;;;5.48;73.04;100342.91;5121984;27;47259;-80
2021/12/02 10:27:36;;;;;;;;;6.33;3.67;;;;;5.79;73.23;100384.75;5120532;27;45492;-80
2021/12/02 10:30:23;;;;;;;;;4.00;2.33;;;;;5.64;72.34;100366.00;5121938;27;45275;-83
2021/12/02 10:32:57;;;;;;;;;5.67;5.00;;;;;5.54;71.53;100349.41;5122368;27;47229;-81
2021/12/02 10:35:51;;;;;;;;;4.00;4.00;;;;;5.86;71.44;100419.25;5125588;27;45704;-84
2021/12/02 10:38:43;;;;;;;;;4.00;4.00;;;;;5.56;72.50;100371.16;5122070;27;45451;-80
2021/12/02 10:41:25;;;;;;;;;2.00;2.00;;;;;5.36;71.45;100341.50;5127639;27;45397;-80
2021/12/02 10:44:09;;;;;;;;;2.00;1.67;;;;;5.74;70.83;100400.19;5130294;27;44794;-80
2021/12/02 10:46:53;;;;;;;;;3.67;3.00;;;;;5.36;72.25;100342.31;5123422;27;47885;-82
2021/12/02 10:49:21;;;;;;;;;2.00;2.00;;;;;5.25;70.72;100324.09;5129527;27;45307;-83
2021/12/02 10:51:51;;;;;;;;;4.00;4.00;;;;;5.54;70.52;100354.69;5123468;27;45313;-81
2021/12/02 10:54:43;;;;;;;;;3.00;3.00;;;;;5.89;70.68;100397.84;5124398;27;46007;-81
2021/12/02 10:57:13;;;;;;;;;5.00;5.00;;;;;5.73;71.05;100368.69;5131059;27;45312;-80
2021/12/02 10:59:48;;;;;;;;;4.00;4.00;;;;;5.47;70.25;100321.97;5140921;27;45239;-79
2021/12/02 11:02:22;;;;;;;;;3.33;2.67;;;;;5.38;69.32;100314.00;5128406;27;45206;-77
2021/12/02 11:04:55;;;;;;;;;2.33;1.67;;;;;5.84;69.07;100381.66;5124345;27;45955;-79
2021/12/02 11:07:40;;;;;;;;;2.00;2.00;;;;;5.37;67.42;100322.06;5124179;27;45391;-78
2021/12/02 11:10:09;;;;;;;;;1.00;1.00;;;;;5.57;66.03;100378.13;5123097;27;45400;-81
2021/12/02 11:12:37;;;;;;;;;2.00;2.00;;;;;5.73;65.44;100395.06;5122400;27;45490;-80
2021/12/02 11:15:16;;;;;;;;;1.33;0.00;;;;;5.70;65.61;100380.38;5123033;27;46213;-79
2021/12/02 11:17:45;;;;;;;;;1.00;1.00;;;;;5.79;66.29;100383.91;5124752;27;45437;-79
2021/12/02 11:20:40;;;;;;;;;3.00;2.00;;;;;5.87;64.52;100386.59;5123367;27;45496;-79
2021/12/02 11:23:13;;;;;;;;;1.00;1.00;;;;;5.94;64.25;100387.69;5122465;27;45383;-79
2021/12/02 11:25:53;;;;;;;;;1.00;0.00;;;;;6.11;62.79;100377.25;5121831;27;45907;-78
2021/12/02 11:28:22;;;;;;;;;3.00;3.00;;;;;6.15;70.35;100385.72;5123399;27;45367;-80
2021/12/02 11:30:48;;;;;;;;;0.00;0.00;;;;;6.06;68.61;100382.19;5130585;27;45160;-82
2021/12/02 11:33:18;;;;;;;;;2.00;2.00;;;;;6.01;65.04;100390.53;5121559;27;45234;-78
2021/12/02 11:35:45;;;;;;;;;0.00;0.00;;;;;5.92;65.88;100392.28;5103390;27;45302;-80
2021/12/02 11:38:17;;;;;;;;;2.00;2.00;;;;;5.71;66.08;100389.94;5100069;27;47141;-78
2021/12/02 11:40:54;;;;;;;;;2.00;2.00;;;;;5.51;65.91;100370.81;5103781;27;45298;-82
2021/12/02 11:43:23;;;;;;;;;0.67;0.00;;;;;5.62;65.26;100393.47;5120308;27;45362;-79
2021/12/02 11:45:59;;;;;;;;;1.00;1.00;;;;;5.41;65.86;100379.59;5133463;27;47049;-79
2021/12/02 11:48:38;;;;;;;;;0.00;0.00;;;;;5.02;67.91;100346.41;5124731;27;45431;-79
2021/12/02 11:51:10;;;;;;;;;1.00;1.00;;;;;4.89;69.41;100357.31;5121933;27;46070;-80
2021/12/02 11:53:36;;;;;;;;;2.00;1.67;;;;;4.63;69.44;100329.00;5127454;27;45204;-79
2021/12/02 11:56:08;;;;;;;;;0.33;0.33;;;;;4.61;70.54;100351.19;5126396;27;45960;-80
2021/12/02 11:58:36;;;;;;;;;3.00;2.67;;;;;4.64;71.20;100351.72;5128255;27;45461;-79
2021/12/02 12:01:06;;;;;;;;;0.00;0.00;;;;;4.87;71.23;100380.31;5125981;27;45394;-78
2021/12/02 12:03:34;;;;;;;;;0.00;0.00;;;;;4.83;71.32;100372.84;5135189;27;44675;-78